sensor_id;sensor_type;location;lat;lon;timestamp;pressure;altitude;pressure_sealevel;temperature;humidity
51243;BME280;37812;47.556;18.718;2022-09-03T00:00:24;99829.53;;;12.05;100.00
51243;BME280;37812;47.556;18.718;2022-09-03T00:05:49;99832.63;;;11.94;100.00
51243;BME280;37812;47.556;18.718;2022-09-03T00:08:54;99833.13;;;11.83;100.00
51243;BME280;37812;47.556;18.718;2022-09-03T00:11:32;99840.13;;;11.85;100.00
51243;BME280;37812;47.556;18.718;2022-09-03T00:14:06;99827.25;;;11.88;100.00
51243;BME280;37812;47.556;18.718;2022-09-03T00:16:47;99823.22;;;11.96;100.00
51243;BME280;37812;47.556;18.718;2022-09-03T00:19:17;99824.16;;;11.99;100.00
51243;BME280;37812;47.556;18.718;2022-09-03T00:21:49;99824.31;;;11.79;100.00
51243;BME280;37812;47.556;18.718;2022-09-03T00:24:18;99826.75;;;11.73;100.00
51243;BME280;37812;47.556;18.718;2022-09-03T00:26:49;99826.66;;;11.72;100.00
51243;BME280;37812;47.556;18.718;2022-09-03T00:29:36;99830.91;;;11.69;100.00
51243;BME280;37812;47.556;18.718;2022-09-03T00:32:12;99836.38;;;11.52;100.00
51243;BME280;37812;47.556;18.718;2022-09-03T00:34:43;99830.12;;;11.47;100.00
51243;BME280;37812;47.556;18.718;2022-09-03T00:37:10;99831.94;;;11.49;100.00
51243;BME280;37812;47.556;18.718;2022-09-03T00:39:36;99833.03;;;11.56;100.00
51243;BME280;37812;47.556;18.718;2022-09-03T00:47:52;99827.19;;;11.61;100.00
51243;BME280;37812;47.556;18.718;2022-09-03T01:01:23;99834.50;;;11.48;100.00
51243;BME280;37812;47.556;18.718;2022-09-03T01:04:11;99825.87;;;11.49;100.00
51243;BME280;37812;47.556;18.718;2022-09-03T01:07:16;99829.31;;;11.48;100.00
51243;BME280;37812;47.556;18.718;2022-09-03T01:12:37;99838.56;;;11.41;100.00
51243;BME280;37812;47.556;18.718;2022-09-03T01:15:18;99845.41;;;11.39;100.00
51243;BME280;37812;47.556;18.718;2022-09-03T01:18:10;99839.34;;;11.38;100.00
51243;BME280;37812;47.556;18.718;2022-09-03T01:20:50;99847.19;;;11.40;100.00
51243;BME280;37812;47.556;18.718;2022-09-03T01:29:23;99852.12;;;11.34;100.00
51243;BME280;37812;47.556;18.718;2022-09-03T01:34:42;99846.84;;;11.31;100.00
51243;BME280;37812;47.556;18.718;2022-09-03T01:40:21;99855.87;;;11.18;100.00
51243;BME280;37812;47.556;18.718;2022-09-03T01:48:13;99857.56;;;11.16;100.00
51243;BME280;37812;47.556;18.718;2022-09-03T01:50:53;99855.87;;;11.18;100.00
51243;BME280;37812;47.556;18.718;2022-09-03T01:59:08;99857.31;;;11.10;100.00
51243;BME280;37812;47.556;18.718;2022-09-03T02:07:33;99854.44;;;10.78;100.00
51243;BME280;37812;47.556;18.718;2022-09-03T02:10:00;99856.78;;;10.72;100.00
51243;BME280;37812;47.556;18.718;2022-09-03T02:12:29;99850.56;;;10.67;100.00
51243;BME280;37812;47.556;18.718;2022-09-03T02:15:04;99858.53;;;10.73;100.00
51243;BME280;37812;47.556;18.718;2022-09-03T02:17:31;99851.00;;;10.79;100.00
51243;BME280;37812;47.556;18.718;2022-09-03T02:20:06;99851.34;;;10.89;100.00
51243;BME280;37812;47.556;18.718;2022-09-03T02:22:33;99854.91;;;10.91;100.00
51243;BME280;37812;47.556;18.718;2022-09-03T02:24:59;99849.59;;;10.88;100.00
51243;BME280;37812;47.556;18.718;2022-09-03T02:27:26;99856.41;;;10.85;100.00
51243;BME280;37812;47.556;18.718;2022-09-03T02:29:52;99847.72;;;10.83;100.00
51243;BME280;37812;47.556;18.718;2022-09-03T02:32:18;99851.47;;;10.92;100.00
51243;BME280;37812;47.556;18.718;2022-09-03T02:34:44;99847.81;;;10.86;100.00
51243;BME280;37812;47.556;18.718;2022-09-03T02:37:13;99853.72;;;10.82;100.00
51243;BME280;37812;47.556;18.718;2022-09-03T02:39:39;99859.38;;;10.72;100.00
51243;BME280;37812;47.556;18.718;2022-09-03T02:42:05;99859.16;;;10.66;100.00
51243;BME280;37812;47.556;18.718;2022-09-03T02:44:34;99861.56;;;10.62;100.00
51243;BME280;37812;47.556;18.718;2022-09-03T02:47:04;99865.97;;;10.64;100.00
51243;BME280;37812;47.556;18.718;2022-09-03T02:49:31;99858.03;;;10.60;100.00
51243;BME280;37812;47.556;18.718;2022-09-03T02:51:59;99857.38;;;10.65;100.00
51243;BME280;37812;47.556;18.718;2022-09-03T02:54:26;99855.50;;;10.61;100.00
51243;BME280;37812;47.556;18.718;2022-09-03T02:56:53;99857.91;;;10.56;100.00
51243;BME280;37812;47.556;18.718;2022-09-03T02:59:19;99849.97;;;10.52;100.00
51243;BME280;37812;47.556;18.718;2022-09-03T03:01:47;99845.69;;;10.52;100.00
51243;BME280;37812;47.556;18.718;2022-09-03T03:04:13;99847.31;;;10.50;100.00
51243;BME280;37812;47.556;18.718;2022-09-03T03:06:40;99851.50;;;10.47;100.00
51243;BME280;37812;47.556;18.718;2022-09-03T03:09:05;99847.97;;;10.45;100.00
51243;BME280;37812;47.556;18.718;2022-09-03T03:11:33;99846.31;;;10.47;100.00
51243;BME280;37812;47.556;18.718;2022-09-03T03:14:01;99847.16;;;10.46;100.00
51243;BME280;37812;47.556;18.718;2022-09-03T03:16:27;99849.75;;;10.46;100.00
51243;BME280;37812;47.556;18.718;2022-09-03T03:18:55;99856.56;;;10.44;100.00
51243;BME280;37812;47.556;18.718;2022-09-03T03:21:21;99864.87;;;10.16;100.00
51243;BME280;37812;47.556;18.718;2022-09-03T03:23:47;99867.28;;;10.11;100.00
51243;BME280;37812;47.556;18.718;2022-09-03T03:26:17;99870.00;;;10.14;100.00
51243;BME280;37812;47.556;18.718;2022-09-03T03:28:43;99865.88;;;10.19;100.00
51243;BME280;37812;47.556;18.718;2022-09-03T03:31:16;99867.94;;;10.26;100.00
51243;BME280;37812;47.556;18.718;2022-09-03T03:33:42;99866.31;;;10.28;100.00
51243;BME280;37812;47.556;18.718;2022-09-03T03:36:11;99866.41;;;10.32;100.00
51243;BME280;37812;47.556;18.718;2022-09-03T03:38:38;99875.25;;;10.37;100.00
51243;BME280;37812;47.556;18.718;2022-09-03T03:41:13;99875.34;;;10.40;100.00
51243;BME280;37812;47.556;18.718;2022-09-03T03:43:40;99872.66;;;10.37;100.00
51243;BME280;37812;47.556;18.718;2022-09-03T03:46:07;99869.09;;;10.35;100.00
51243;BME280;37812;47.556;18.718;2022-09-03T03:48:33;99867.66;;;10.41;100.00
51243;BME280;37812;47.556;18.718;2022-09-03T03:51:00;99867.94;;;10.49;100.00
51243;BME280;37812;47.556;18.718;2022-09-03T03:53:29;99873.84;;;10.45;100.00
51243;BME280;37812;47.556;18.718;2022-09-03T03:55:57;99880.53;;;10.40;100.00
51243;BME280;37812;47.556;18.718;2022-09-03T03:58:24;99879.34;;;10.32;100.00
51243;BME280;37812;47.556;18.718;2022-09-03T04:00:51;99887.53;;;10.21;100.00
51243;BME280;37812;47.556;18.718;2022-09-03T04:03:17;99883.91;;;10.18;100.00
51243;BME280;37812;47.556;18.718;2022-09-03T04:05:54;99890.25;;;10.24;100.00
51243;BME280;37812;47.556;18.718;2022-09-03T04:08:21;99893.09;;;10.30;100.00
51243;BME280;37812;47.556;18.718;2022-09-03T04:10:47;99893.94;;;10.29;100.00
51243;BME280;37812;47.556;18.718;2022-09-03T04:13:13;99898.69;;;10.20;100.00
51243;BME280;37812;47.556;18.718;2022-09-03T04:15:39;99892.78;;;10.23;100.00
51243;BME280;37812;47.556;18.718;2022-09-03T04:18:07;99903.88;;;10.20;100.00
51243;BME280;37812;47.556;18.718;2022-09-03T04:20:35;99906.50;;;10.22;100.00
51243;BME280;37812;47.556;18.718;2022-09-03T04:23:04;99901.19;;;10.19;100.00
51243;BME280;37812;47.556;18.718;2022-09-03T04:25:31;99898.16;;;10.27;100.00
51243;BME280;37812;47.556;18.718;2022-09-03T04:27:56;99897.56;;;10.35;100.00
51243;BME280;37812;47.556;18.718;2022-09-03T04:30:22;99893.66;;;10.44;100.00
51243;BME280;37812;47.556;18.718;2022-09-03T04:32:49;99898.66;;;10.62;100.00
51243;BME280;37812;47.556;18.718;2022-09-03T04:35:21;99912.88;;;10.73;100.00
51243;BME280;37812;47.556;18.718;2022-09-03T04:37:47;99911.81;;;10.46;100.00
51243;BME280;37812;47.556;18.718;2022-09-03T04:40:13;99907.34;;;10.64;100.00
51243;BME280;37812;47.556;18.718;2022-09-03T04:42:40;99914.53;;;10.71;100.00
51243;BME280;37812;47.556;18.718;2022-09-03T04:45:06;99913.03;;;10.76;100.00
51243;BME280;37812;47.556;18.718;2022-09-03T04:47:33;99908.09;;;10.82;100.00
51243;BME280;37812;47.556;18.718;2022-09-03T04:50:01;99913.84;;;10.98;100.00
51243;BME280;37812;47.556;18.718;2022-09-03T04:52:28;99910.88;;;11.11;100.00
51243;BME280;37812;47.556;18.718;2022-09-03T04:54:56;99919.38;;;11.07;100.00
51243;BME280;37812;47.556;18.718;2022-09-03T04:57:23;99921.66;;;11.22;100.00
51243;BME280;37812;47.556;18.718;2022-09-03T04:59:49;99914.44;;;11.37;100.00
51243;BME280;37812;47.556;18.718;2022-09-03T05:02:15;99919.63;;;11.61;100.00
51243;BME280;37812;47.556;18.718;2022-09-03T05:04:41;99910.03;;;11.82;100.00
51243;BME280;37812;47.556;18.718;2022-09-03T05:07:07;99922.38;;;11.89;100.00
51243;BME280;37812;47.556;18.718;2022-09-03T05:09:33;99910.94;;;12.10;100.00
51243;BME280;37812;47.556;18.718;2022-09-03T05:11:59;99918.53;;;12.29;100.00
51243;BME280;37812;47.556;18.718;2022-09-03T05:14:25;99918.41;;;12.26;100.00
51243;BME280;37812;47.556;18.718;2022-09-03T05:16:51;99923.09;;;12.11;100.00
51243;BME280;37812;47.556;18.718;2022-09-03T05:19:17;99920.19;;;12.02;100.00
51243;BME280;37812;47.556;18.718;2022-09-03T05:21:43;99913.31;;;12.29;100.00
51243;BME280;37812;47.556;18.718;2022-09-03T05:24:09;99907.97;;;12.50;100.00
51243;BME280;37812;47.556;18.718;2022-09-03T05:26:38;99923.09;;;12.65;100.00
51243;BME280;37812;47.556;18.718;2022-09-03T05:29:06;99910.13;;;12.93;100.00
51243;BME280;37812;47.556;18.718;2022-09-03T05:31:33;99911.91;;;13.23;100.00
51243;BME280;37812;47.556;18.718;2022-09-03T05:34:02;99923.91;;;13.49;100.00
51243;BME280;37812;47.556;18.718;2022-09-03T05:36:30;99916.94;;;13.80;100.00
51243;BME280;37812;47.556;18.718;2022-09-03T05:38:57;99914.84;;;13.98;100.00
51243;BME280;37812;47.556;18.718;2022-09-03T05:41:24;99916.19;;;14.17;100.00
51243;BME280;37812;47.556;18.718;2022-09-03T05:43:51;99910.56;;;14.35;100.00
51243;BME280;37812;47.556;18.718;2022-09-03T05:46:26;99906.75;;;14.57;100.00
51243;BME280;37812;47.556;18.718;2022-09-03T05:49:00;99908.84;;;14.71;100.00
51243;BME280;37812;47.556;18.718;2022-09-03T05:51:27;99910.75;;;14.79;100.00
51243;BME280;37812;47.556;18.718;2022-09-03T05:53:53;99917.84;;;14.86;99.66
51243;BME280;37812;47.556;18.718;2022-09-03T05:56:22;99912.00;;;14.96;98.47
51243;BME280;37812;47.556;18.718;2022-09-03T05:58:51;99910.22;;;14.95;98.95
51243;BME280;37812;47.556;18.718;2022-09-03T06:01:26;99907.19;;;15.14;99.32
51243;BME280;37812;47.556;18.718;2022-09-03T06:04:09;99909.34;;;15.34;98.79
51243;BME280;37812;47.556;18.718;2022-09-03T06:06:37;99906.09;;;15.47;96.62
51243;BME280;37812;47.556;18.718;2022-09-03T06:09:26;99904.59;;;15.58;97.91
51243;BME280;37812;47.556;18.718;2022-09-03T06:11:51;99910.91;;;15.69;96.97
51243;BME280;37812;47.556;18.718;2022-09-03T06:14:19;99909.34;;;15.79;93.59
51243;BME280;37812;47.556;18.718;2022-09-03T06:16:46;99910.47;;;15.92;94.85
51243;BME280;37812;47.556;18.718;2022-09-03T06:19:17;99909.87;;;16.08;92.47
51243;BME280;37812;47.556;18.718;2022-09-03T06:21:44;99911.00;;;16.22;91.59
51243;BME280;37812;47.556;18.718;2022-09-03T06:24:14;99912.81;;;16.26;92.64
51243;BME280;37812;47.556;18.718;2022-09-03T06:26:41;99918.88;;;15.75;92.92
51243;BME280;37812;47.556;18.718;2022-09-03T06:29:06;99912.22;;;15.93;93.01
51243;BME280;37812;47.556;18.718;2022-09-03T06:31:33;99904.38;;;16.43;91.35
51243;BME280;37812;47.556;18.718;2022-09-03T06:34:00;99900.34;;;16.64;89.93
51243;BME280;37812;47.556;18.718;2022-09-03T06:36:26;99902.56;;;16.94;88.95
51243;BME280;37812;47.556;18.718;2022-09-03T06:38:54;99896.00;;;18.04;83.82
51243;BME280;37812;47.556;18.718;2022-09-03T06:41:23;99903.19;;;20.04;73.87
51243;BME280;37812;47.556;18.718;2022-09-03T06:43:56;99893.84;;;23.05;60.50
51243;BME280;37812;47.556;18.718;2022-09-03T06:46:24;99882.84;;;24.58;52.02
51243;BME280;37812;47.556;18.718;2022-09-03T06:48:50;99880.97;;;25.53;49.61
51243;BME280;37812;47.556;18.718;2022-09-03T06:51:21;99882.66;;;25.57;50.08
51243;BME280;37812;47.556;18.718;2022-09-03T06:53:50;99882.25;;;27.44;43.15
51243;BME280;37812;47.556;18.718;2022-09-03T06:56:21;99882.72;;;24.64;50.55
51243;BME280;37812;47.556;18.718;2022-09-03T06:58:55;99873.53;;;24.36;51.33
51243;BME280;37812;47.556;18.718;2022-09-03T07:01:25;99879.16;;;25.55;48.64
51243;BME280;37812;47.556;18.718;2022-09-03T07:03:59;99884.06;;;23.82;52.35
51243;BME280;37812;47.556;18.718;2022-09-03T07:06:27;99875.69;;;24.63;49.75
51243;BME280;37812;47.556;18.718;2022-09-03T07:08:54;99874.25;;;26.14;46.55
51243;BME280;37812;47.556;18.718;2022-09-03T07:11:24;99873.66;;;25.24;47.39
51243;BME280;37812;47.556;18.718;2022-09-03T07:13:52;99875.03;;;24.51;50.24
51243;BME280;37812;47.556;18.718;2022-09-03T07:16:22;99893.09;;;23.66;52.69
51243;BME280;37812;47.556;18.718;2022-09-03T07:18:49;99892.22;;;22.94;54.72
51243;BME280;37812;47.556;18.718;2022-09-03T07:21:19;99883.66;;;22.71;54.43
51243;BME280;37812;47.556;18.718;2022-09-03T07:23:45;99888.97;;;22.65;55.00
51243;BME280;37812;47.556;18.718;2022-09-03T07:26:20;99889.81;;;23.45;52.59
51243;BME280;37812;47.556;18.718;2022-09-03T07:28:47;99883.72;;;23.42;52.94
51243;BME280;37812;47.556;18.718;2022-09-03T07:31:24;99891.75;;;23.34;53.42
51243;BME280;37812;47.556;18.718;2022-09-03T07:33:58;99887.47;;;23.90;52.87
51243;BME280;37812;47.556;18.718;2022-09-03T07:36:27;99875.88;;;23.99;49.76
51243;BME280;37812;47.556;18.718;2022-09-03T07:38:56;99870.28;;;27.00;43.46
51243;BME280;37812;47.556;18.718;2022-09-03T07:41:23;99875.56;;;26.33;44.96
51243;BME280;37812;47.556;18.718;2022-09-03T07:43:51;99885.06;;;23.73;51.70
51243;BME280;37812;47.556;18.718;2022-09-03T07:46:23;99880.03;;;23.52;52.73
51243;BME280;37812;47.556;18.718;2022-09-03T07:48:54;99876.25;;;24.30;50.88
51243;BME280;37812;47.556;18.718;2022-09-03T07:51:25;99876.12;;;26.11;45.73
51243;BME280;37812;47.556;18.718;2022-09-03T07:53:53;99883.12;;;26.13;46.18
51243;BME280;37812;47.556;18.718;2022-09-03T07:56:21;99885.88;;;24.35;50.94
51243;BME280;37812;47.556;18.718;2022-09-03T07:58:47;99885.91;;;24.34;49.34
51243;BME280;37812;47.556;18.718;2022-09-03T08:01:15;99887.59;;;22.21;56.33
51243;BME280;37812;47.556;18.718;2022-09-03T08:03:46;99888.50;;;22.18;58.21
51243;BME280;37812;47.556;18.718;2022-09-03T08:06:14;99891.97;;;23.16;53.37
51243;BME280;37812;47.556;18.718;2022-09-03T08:08:41;99889.72;;;23.54;55.05
51243;BME280;37812;47.556;18.718;2022-09-03T08:11:10;99881.47;;;26.09;46.34
51243;BME280;37812;47.556;18.718;2022-09-03T08:13:44;99882.06;;;25.85;45.63
51243;BME280;37812;47.556;18.718;2022-09-03T08:16:12;99881.72;;;27.33;40.73
51243;BME280;37812;47.556;18.718;2022-09-03T08:18:38;99883.19;;;27.43;40.95
51243;BME280;37812;47.556;18.718;2022-09-03T08:21:11;99887.13;;;25.55;44.52
51243;BME280;37812;47.556;18.718;2022-09-03T08:23:42;99886.03;;;27.08;41.61
51243;BME280;37812;47.556;18.718;2022-09-03T08:26:08;99884.47;;;26.98;39.85
51243;BME280;37812;47.556;18.718;2022-09-03T08:28:35;99891.78;;;26.21;44.39
51243;BME280;37812;47.556;18.718;2022-09-03T08:33:31;99885.56;;;27.82;40.06
51243;BME280;37812;47.556;18.718;2022-09-03T08:36:05;99883.28;;;28.26;39.39
51243;BME280;37812;47.556;18.718;2022-09-03T08:38:33;99892.84;;;25.35;45.54
51243;BME280;37812;47.556;18.718;2022-09-03T08:41:10;99890.50;;;24.74;46.39
51243;BME280;37812;47.556;18.718;2022-09-03T08:44:18;99889.56;;;25.64;44.50
51243;BME280;37812;47.556;18.718;2022-09-03T08:49:21;99891.53;;;24.12;48.15
51243;BME280;37812;47.556;18.718;2022-09-03T08:51:48;99884.47;;;24.65;48.75
51243;BME280;37812;47.556;18.718;2022-09-03T08:54:16;99891.88;;;23.22;49.83
51243;BME280;37812;47.556;18.718;2022-09-03T08:56:45;99893.38;;;24.61;47.15
51243;BME280;37812;47.556;18.718;2022-09-03T08:59:11;99888.63;;;26.75;43.29
51243;BME280;37812;47.556;18.718;2022-09-03T09:01:54;99881.66;;;24.24;48.50
51243;BME280;37812;47.556;18.718;2022-09-03T09:15:10;99864.25;;;25.90;44.91
51243;BME280;37812;47.556;18.718;2022-09-03T09:17:56;99858.28;;;27.76;41.00
51243;BME280;37812;47.556;18.718;2022-09-03T09:20:48;99867.34;;;25.30;45.84
51243;BME280;37812;47.556;18.718;2022-09-03T09:23:31;99862.31;;;24.71;45.10
51243;BME280;37812;47.556;18.718;2022-09-03T09:26:00;99866.81;;;24.13;46.75
51243;BME280;37812;47.556;18.718;2022-09-03T09:28:34;99860.91;;;25.82;42.83
51243;BME280;37812;47.556;18.718;2022-09-03T09:31:02;99865.97;;;25.54;43.59
51243;BME280;37812;47.556;18.718;2022-09-03T09:33:30;99870.16;;;25.22;44.98
51243;BME280;37812;47.556;18.718;2022-09-03T09:36:05;99868.38;;;24.78;44.76
51243;BME280;37812;47.556;18.718;2022-09-03T09:38:35;99861.63;;;25.49;41.42
51243;BME280;37812;47.556;18.718;2022-09-03T09:41:28;99861.78;;;24.52;46.47
51243;BME280;37812;47.556;18.718;2022-09-03T09:44:01;99864.47;;;25.81;41.80
51243;BME280;37812;47.556;18.718;2022-09-03T09:46:36;99855.63;;;28.04;38.98
51243;BME280;37812;47.556;18.718;2022-09-03T09:49:28;99859.62;;;28.70;36.78
51243;BME280;37812;47.556;18.718;2022-09-03T09:54:28;99859.19;;;27.17;41.77
51243;BME280;37812;47.556;18.718;2022-09-03T09:57:04;99853.19;;;29.93;32.45
51243;BME280;37812;47.556;18.718;2022-09-03T09:59:31;99858.72;;;27.01;39.96
51243;BME280;37812;47.556;18.718;2022-09-03T10:02:11;99863.06;;;25.24;44.21
51243;BME280;37812;47.556;18.718;2022-09-03T10:04:39;99865.38;;;26.85;40.65
51243;BME280;37812;47.556;18.718;2022-09-03T10:07:24;99863.22;;;26.67;42.27
51243;BME280;37812;47.556;18.718;2022-09-03T10:09:59;99860.84;;;25.01;40.99
51243;BME280;37812;47.556;18.718;2022-09-03T10:12:38;99856.63;;;26.81;39.42
51243;BME280;37812;47.556;18.718;2022-09-03T10:23:12;99852.56;;;28.16;37.87
51243;BME280;37812;47.556;18.718;2022-09-03T10:28:12;99851.13;;;25.45;41.64
51243;BME280;37812;47.556;18.718;2022-09-03T10:30:55;99851.72;;;27.87;38.29
51243;BME280;37812;47.556;18.718;2022-09-03T10:33:37;99852.31;;;25.70;40.91
51243;BME280;37812;47.556;18.718;2022-09-03T10:36:35;99861.75;;;23.38;49.59
51243;BME280;37812;47.556;18.718;2022-09-03T10:39:38;99852.75;;;24.11;46.53
51243;BME280;37812;47.556;18.718;2022-09-03T10:44:52;99839.28;;;27.01;41.69
51243;BME280;37812;47.556;18.718;2022-09-03T10:50:14;99835.78;;;27.87;37.98
51243;BME280;37812;47.556;18.718;2022-09-03T10:59:01;99828.84;;;25.13;41.47
51243;BME280;37812;47.556;18.718;2022-09-03T11:01:57;99826.84;;;25.25;43.09
51243;BME280;37812;47.556;18.718;2022-09-03T11:04:31;99817.84;;;26.09;40.98
51243;BME280;37812;47.556;18.718;2022-09-03T11:07:06;99830.12;;;25.36;40.83
51243;BME280;37812;47.556;18.718;2022-09-03T11:09:49;99828.19;;;25.83;40.84
51243;BME280;37812;47.556;18.718;2022-09-03T11:12:22;99830.22;;;25.33;42.20
51243;BME280;37812;47.556;18.718;2022-09-03T11:15:03;99829.91;;;25.05;40.80
51243;BME280;37812;47.556;18.718;2022-09-03T11:17:53;99831.97;;;24.89;41.59
51243;BME280;37812;47.556;18.718;2022-09-03T11:20:23;99826.84;;;26.02;40.75
51243;BME280;37812;47.556;18.718;2022-09-03T11:22:56;99832.81;;;24.91;40.59
51243;BME280;37812;47.556;18.718;2022-09-03T11:25:28;99832.19;;;24.29;42.89
51243;BME280;37812;47.556;18.718;2022-09-03T11:33:18;99836.13;;;23.45;46.11
51243;BME280;37812;47.556;18.718;2022-09-03T11:35:56;99838.06;;;22.57;47.45
51243;BME280;37812;47.556;18.718;2022-09-03T11:38:26;99825.22;;;24.25;43.60
51243;BME280;37812;47.556;18.718;2022-09-03T11:43:32;99828.34;;;26.12;38.97
51243;BME280;37812;47.556;18.718;2022-09-03T11:50:59;99825.47;;;26.21;39.32
51243;BME280;37812;47.556;18.718;2022-09-03T11:53:32;99827.66;;;23.83;42.33
51243;BME280;37812;47.556;18.718;2022-09-03T11:56:00;99842.13;;;22.90;44.04
51243;BME280;37812;47.556;18.718;2022-09-03T11:58:38;99829.06;;;24.05;43.43
51243;BME280;37812;47.556;18.718;2022-09-03T12:01:09;99832.13;;;25.65;40.17
51243;BME280;37812;47.556;18.718;2022-09-03T12:11:41;99844.00;;;23.49;43.90
51243;BME280;37812;47.556;18.718;2022-09-03T12:19:54;99828.41;;;24.45;43.89
51243;BME280;37812;47.556;18.718;2022-09-03T12:22:24;99825.53;;;25.02;42.58
51243;BME280;37812;47.556;18.718;2022-09-03T12:24:50;99827.34;;;25.00;41.64
51243;BME280;37812;47.556;18.718;2022-09-03T12:27:20;99821.22;;;26.14;41.15
51243;BME280;37812;47.556;18.718;2022-09-03T12:29:58;99818.94;;;25.23;39.25
51243;BME280;37812;47.556;18.718;2022-09-03T12:32:29;99820.50;;;26.09;39.01
51243;BME280;37812;47.556;18.718;2022-09-03T12:35:11;99819.53;;;24.49;40.25
51243;BME280;37812;47.556;18.718;2022-09-03T12:37:37;99827.09;;;25.12;41.10
51243;BME280;37812;47.556;18.718;2022-09-03T12:40:04;99826.34;;;24.62;41.88
51243;BME280;37812;47.556;18.718;2022-09-03T12:42:33;99817.94;;;24.84;40.09
51243;BME280;37812;47.556;18.718;2022-09-03T12:45:08;99822.53;;;24.76;41.98
51243;BME280;37812;47.556;18.718;2022-09-03T12:47:41;99816.06;;;24.44;41.79
51243;BME280;37812;47.556;18.718;2022-09-03T12:50:11;99816.72;;;24.06;42.63
51243;BME280;37812;47.556;18.718;2022-09-03T12:55:26;99829.44;;;23.19;44.44
51243;BME280;37812;47.556;18.718;2022-09-03T12:58:10;99819.25;;;24.12;42.74
51243;BME280;37812;47.556;18.718;2022-09-03T13:03:23;99814.25;;;25.36;41.04
51243;BME280;37812;47.556;18.718;2022-09-03T13:05:58;99816.13;;;25.68;39.36
51243;BME280;37812;47.556;18.718;2022-09-03T13:08:33;99811.78;;;25.65;39.61
51243;BME280;37812;47.556;18.718;2022-09-03T13:11:03;99805.25;;;25.43;40.64
51243;BME280;37812;47.556;18.718;2022-09-03T13:13:32;99797.53;;;25.72;37.33
51243;BME280;37812;47.556;18.718;2022-09-03T13:26:45;99798.19;;;25.03;39.77
51243;BME280;37812;47.556;18.718;2022-09-03T13:32:01;99797.78;;;25.21;39.24
51243;BME280;37812;47.556;18.718;2022-09-03T13:34:39;99793.25;;;24.83;42.16
51243;BME280;37812;47.556;18.718;2022-09-03T13:37:39;99796.94;;;24.76;40.39
51243;BME280;37812;47.556;18.718;2022-09-03T13:40:24;99780.69;;;24.51;41.45
51243;BME280;37812;47.556;18.718;2022-09-03T13:43:32;99791.69;;;24.75;39.80
51243;BME280;37812;47.556;18.718;2022-09-03T13:46:15;99790.25;;;24.07;42.20
51243;BME280;37812;47.556;18.718;2022-09-03T13:48:43;99781.59;;;24.50;39.06
51243;BME280;37812;47.556;18.718;2022-09-03T13:51:36;99788.97;;;24.33;42.31
51243;BME280;37812;47.556;18.718;2022-09-03T13:54:11;99781.22;;;24.21;38.20
51243;BME280;37812;47.556;18.718;2022-09-03T13:57:04;99787.59;;;24.58;38.51
51243;BME280;37812;47.556;18.718;2022-09-03T14:07:56;99772.31;;;24.73;39.62
51243;BME280;37812;47.556;18.718;2022-09-03T14:13:46;99772.00;;;24.43;41.64
51243;BME280;37812;47.556;18.718;2022-09-03T14:18:48;99765.41;;;24.18;39.33
51243;BME280;37812;47.556;18.718;2022-09-03T14:21:21;99775.88;;;24.24;39.83
51243;BME280;37812;47.556;18.718;2022-09-03T14:24:06;99765.06;;;24.39;39.15
51243;BME280;37812;47.556;18.718;2022-09-03T14:26:36;99763.72;;;24.13;41.07
51243;BME280;37812;47.556;18.718;2022-09-03T14:29:07;99763.44;;;24.77;40.10
51243;BME280;37812;47.556;18.718;2022-09-03T14:40:11;99759.09;;;24.73;40.50
51243;BME280;37812;47.556;18.718;2022-09-03T14:45:20;99757.28;;;24.75;38.50
51243;BME280;37812;47.556;18.718;2022-09-03T14:53:24;99752.38;;;24.56;39.52
51243;BME280;37812;47.556;18.718;2022-09-03T14:58:37;99748.50;;;24.26;38.45
51243;BME280;37812;47.556;18.718;2022-09-03T15:01:34;99761.94;;;24.14;39.53
51243;BME280;37812;47.556;18.718;2022-09-03T15:09:51;99758.50;;;23.56;41.21
51243;BME280;37812;47.556;18.718;2022-09-03T15:15:04;99770.19;;;23.40;42.67
51243;BME280;37812;47.556;18.718;2022-09-03T15:17:46;99757.78;;;23.45;41.75
51243;BME280;37812;47.556;18.718;2022-09-03T15:20:23;99764.13;;;23.34;42.30
51243;BME280;37812;47.556;18.718;2022-09-03T15:36:35;99772.47;;;23.03;42.88
51243;BME280;37812;47.556;18.718;2022-09-03T15:39:26;99770.84;;;22.94;42.97
51243;BME280;37812;47.556;18.718;2022-09-03T15:44:25;99766.72;;;22.67;43.68
51243;BME280;37812;47.556;18.718;2022-09-03T15:52:58;99751.63;;;22.80;46.86
51243;BME280;37812;47.556;18.718;2022-09-03T15:55:37;99764.00;;;22.75;45.80
51243;BME280;37812;47.556;18.718;2022-09-03T16:01:00;99753.91;;;22.35;44.66
51243;BME280;37812;47.556;18.718;2022-09-03T16:03:36;99753.28;;;22.12;47.08
51243;BME280;37812;47.556;18.718;2022-09-03T16:08:56;99755.25;;;21.87;46.74
51243;BME280;37812;47.556;18.718;2022-09-03T16:11:38;99757.06;;;21.76;48.05
51243;BME280;37812;47.556;18.718;2022-09-03T16:14:17;99758.03;;;21.67;48.36
51243;BME280;37812;47.556;18.718;2022-09-03T16:17:04;99758.06;;;21.61;48.89
51243;BME280;37812;47.556;18.718;2022-09-03T16:22:50;99759.84;;;21.60;51.09
51243;BME280;37812;47.556;18.718;2022-09-03T16:25:27;99768.69;;;21.52;51.76
51243;BME280;37812;47.556;18.718;2022-09-03T16:31:25;99775.69;;;21.53;54.31
51243;BME280;37812;47.556;18.718;2022-09-03T16:39:07;99766.19;;;21.30;57.34
51243;BME280;37812;47.556;18.718;2022-09-03T16:41:47;99767.16;;;21.11;59.21
51243;BME280;37812;47.556;18.718;2022-09-03T16:46:59;99765.50;;;20.92;57.22
51243;BME280;37812;47.556;18.718;2022-09-03T16:58:21;99777.06;;;20.28;66.53
51243;BME280;37812;47.556;18.718;2022-09-03T17:03:42;99784.94;;;19.53;72.25